KLM87J EHAM-EGKK
Flight info
| Callsign | KLM87J |
|---|---|
| Flight time | N/A |
| Altitude | 24000 |
| Route | IDRID L980 ABNED Z344 AMRIV Q63 ARREK Y4 TEBRA |
| Aircraft | B77W/H-SDE1E2E3FGHIJ2J3J4J5M1RWXY/LB1D1 |
Departure
| Time | 2026-04-30 19:39 |
|---|---|
| Airport | Amsterdam Airport Schiphol (EHAM) |
Arrival
| Time | N/A |
|---|---|
| Airport | London Gatwick Airport (EGKK) |
| Time | Latitude | Longitude | Altitude | Speed | Heading |
|---|---|---|---|---|---|
| 2026-04-30 19:24 | 52.31284 | 4.75567 | 7 ft | 0 kts | 87° |
| 2026-04-30 19:27 | 52.31285 | 4.75567 | 7 ft | 0 kts | 87° |
| 2026-04-30 19:30 | 52.31285 | 4.75568 | 7 ft | 0 kts | 87° |
| 2026-04-30 19:31 | 52.31284 | 4.75541 | 8 ft | 5 kts | 87° |
| 2026-04-30 19:32 | 52.31272 | 4.75487 | 11 ft | 5 kts | 34° |
| 2026-04-30 19:32 | 52.31240 | 4.75461 | 10 ft | 5 kts | 14° |
| 2026-04-30 19:32 | 52.31230 | 4.75457 | 10 ft | 0 kts | 358° |
| 2026-04-30 19:34 | 52.31264 | 4.75456 | 10 ft | 10 kts | 358° |
| 2026-04-30 19:34 | 52.31490 | 4.75393 | 7 ft | 17 kts | 306° |
| 2026-04-30 19:35 | 52.31504 | 4.75182 | 8 ft | 21 kts | 266° |
| 2026-04-30 19:35 | 52.31495 | 4.74925 | 7 ft | 17 kts | 266° |
| 2026-04-30 19:35 | 52.31492 | 4.74754 | 7 ft | 0 kts | 280° |
| 2026-04-30 19:36 | 52.31493 | 4.74744 | 7 ft | 3 kts | 280° |
| 2026-04-30 19:36 | 52.31557 | 4.74664 | 7 ft | 4 kts | 353° |
| 2026-04-30 19:37 | 52.31560 | 4.74664 | 7 ft | 3 kts | 353° |
| 2026-04-30 19:37 | 52.31624 | 4.74671 | 9 ft | 16 kts | 16° |
| 2026-04-30 19:38 | 52.31672 | 4.74836 | 7 ft | 14 kts | 86° |
| 2026-04-30 19:38 | 52.31673 | 4.74873 | 6 ft | 17 kts | 86° |
| 2026-04-30 19:38 | 52.31697 | 4.75578 | 4 ft | 106 kts | 86° |
| 2026-04-30 19:38 | 52.31751 | 4.77224 | 10 ft | 182 kts | 87° |
| 2026-04-30 19:39 | 52.31817 | 4.79348 | 1085 ft | 190 kts | 90° |
| 2026-04-30 19:39 | 52.31898 | 4.81704 | 1971 ft | 205 kts | 92° |
| 2026-04-30 19:39 | 52.31945 | 4.83896 | 3615 ft | 194 kts | 94° |
| 2026-04-30 19:39 | 52.31948 | 4.86315 | 3796 ft | 230 kts | 96° |
| 2026-04-30 19:40 | 52.31885 | 4.89134 | 4073 ft | 265 kts | 96° |
| 2026-04-30 19:40 | 52.31777 | 4.92419 | 4033 ft | 313 kts | 96° |
| 2026-04-30 19:40 | 52.31654 | 4.95945 | 3994 ft | 292 kts | 96° |
| 2026-04-30 19:40 | 52.31547 | 4.99001 | 3908 ft | 256 kts | 96° |
| 2026-04-30 19:41 | 52.31485 | 5.01258 | 3930 ft | 247 kts | 96° |